Ashaway, Rhode Island
Current Conditions -  °F | °C
As of 6:15 PM on Thursday 23 Oct 2014 (Local Time) from KWST Reporting Station
Light Rain Light Rain  
Wind Chill: 55°   Ceiling: 9000
Heat Index: 55°   Visibility: 10mi
Dew Point: 50°   Wind: 17mph
Humidity: 83%   Direction: 350°N
Pressure: 29.58"   Gusts: 26mph
Location:  41.43°N, 71.79°W
Report Text: KWST 232215Z AUTO 35015G23KT 10SM -RA SCT020 SCT048 OVC090 13/10 A2958 RMK AO2 P0000 T01280100
Loading
Personal Weather Stations






























Interactive Weather Map New forecast layout! Learn more

10-Day Weather Forecast

Advertisements
Track Severe Weather on mobile